createdAt,value
2023-02-17T00:00:03.562Z,83.5
2023-02-17T00:03:03.439Z,83.5
2023-02-17T00:06:03.375Z,83.5
2023-02-17T00:09:03.298Z,83.2
2023-02-17T00:12:03.359Z,83.2
2023-02-17T00:15:03.431Z,83.2
2023-02-17T00:18:03.553Z,83.2
2023-02-17T00:21:03.332Z,83.2
2023-02-17T00:24:03.329Z,83.2
2023-02-17T00:27:03.364Z,83.2
2023-02-17T00:30:03.510Z,83.2
2023-02-17T00:33:03.352Z,83.2
2023-02-17T00:36:03.576Z,83.2
2023-02-17T00:39:03.317Z,83.2
2023-02-17T00:42:03.284Z,83.2
2023-02-17T00:45:03.390Z,83.2
2023-02-17T00:48:03.338Z,83.2
2023-02-17T00:51:03.339Z,83.2
2023-02-17T00:54:03.414Z,83.2
2023-02-17T00:57:03.279Z,83.2
2023-02-17T01:00:03.350Z,83.2
2023-02-17T01:03:03.332Z,83.2
2023-02-17T01:06:03.626Z,83.2
2023-02-17T01:09:03.330Z,83.2
2023-02-17T01:12:03.372Z,84
2023-02-17T01:15:03.417Z,84
2023-02-17T01:18:03.345Z,84
2023-02-17T01:21:03.277Z,84
2023-02-17T01:24:03.328Z,84
2023-02-17T01:27:03.354Z,84
2023-02-17T01:30:03.568Z,84
2023-02-17T01:33:03.352Z,84.5
2023-02-17T01:36:03.398Z,84.5
2023-02-17T01:39:03.381Z,84.5
2023-02-17T01:42:03.259Z,84.5
2023-02-17T01:45:03.347Z,84.5
2023-02-17T01:48:03.401Z,84.5
2023-02-17T01:51:03.274Z,84.5
2023-02-17T01:54:03.326Z,85.1
2023-02-17T01:57:03.332Z,85.1
2023-02-17T02:00:03.353Z,85.1
2023-02-17T02:03:03.672Z,85.1
2023-02-17T02:06:03.623Z,85.1
2023-02-17T02:09:03.333Z,85.6
2023-02-17T02:12:03.323Z,85.6
2023-02-17T02:15:03.389Z,85.6
2023-02-17T02:18:03.371Z,85.6
2023-02-17T02:21:03.306Z,85.6
2023-02-17T02:24:03.294Z,85.6
2023-02-17T02:27:03.364Z,86.2
2023-02-17T02:30:03.512Z,86.2
2023-02-17T02:33:03.332Z,86.2
2023-02-17T02:36:03.480Z,86.2
2023-02-17T02:39:03.298Z,86.2
2023-02-17T02:42:03.316Z,86.2
2023-02-17T02:45:03.336Z,86.2
2023-02-17T02:48:03.290Z,86.2
2023-02-17T02:51:03.326Z,86.2
2023-02-17T02:54:03.444Z,86.2
2023-02-17T02:57:03.377Z,86.2
2023-02-17T03:00:03.348Z,86.2
2023-02-17T03:03:03.369Z,86.2
2023-02-17T03:06:03.576Z,86.2
2023-02-17T03:09:03.301Z,86.2
2023-02-17T03:12:03.386Z,87.2
2023-02-17T03:15:03.493Z,87.2
2023-02-17T03:18:03.352Z,87.2
2023-02-17T03:21:03.342Z,87.2
2023-02-17T03:24:03.381Z,87.2
2023-02-17T03:27:03.324Z,87.2
2023-02-17T03:30:03.528Z,87.2
2023-02-17T03:33:03.367Z,87.2
2023-02-17T03:36:03.465Z,87.2
2023-02-17T03:39:03.399Z,87.2
2023-02-17T03:42:03.291Z,87.9
2023-02-17T03:45:03.395Z,87.9
2023-02-17T03:48:03.387Z,87.9
2023-02-17T03:51:03.327Z,87.9
2023-02-17T03:54:03.289Z,87.9
2023-02-17T03:57:03.441Z,87.9
2023-02-17T04:00:03.347Z,87.9
2023-02-17T04:03:03.419Z,87.9
2023-02-17T04:06:03.598Z,87.9
2023-02-17T04:09:03.317Z,87.9
2023-02-17T04:12:03.378Z,87.9
2023-02-17T04:15:03.337Z,88.2
2023-02-17T04:18:03.336Z,88.2
2023-02-17T04:21:03.305Z,88.2
2023-02-17T04:24:03.319Z,88.2
2023-02-17T04:27:03.318Z,88.2
2023-02-17T04:30:03.568Z,88.2
2023-02-17T04:33:03.352Z,88.2
2023-02-17T04:36:03.546Z,88.2
2023-02-17T04:39:03.353Z,88.2
2023-02-17T04:42:03.400Z,88.2
2023-02-17T04:45:03.383Z,88.2
2023-02-17T04:48:03.352Z,88.2
2023-02-17T04:51:03.452Z,88.2
2023-02-17T04:54:03.516Z,88.2
2023-02-17T04:57:03.388Z,88.2
2023-02-17T05:00:03.328Z,88.2
2023-02-17T05:03:03.457Z,88.2
2023-02-17T05:06:03.687Z,88.2
2023-02-17T05:09:03.361Z,88.2
2023-02-17T05:12:03.300Z,88.2
2023-02-17T05:15:03.352Z,88.2
2023-02-17T05:18:03.298Z,89
2023-02-17T05:21:03.344Z,89
2023-02-17T05:24:03.329Z,89
2023-02-17T05:27:03.368Z,89
2023-02-17T05:30:03.494Z,89
2023-02-17T05:33:03.349Z,89
2023-02-17T05:36:03.598Z,89
2023-02-17T05:39:03.317Z,89
2023-02-17T05:42:03.342Z,89
2023-02-17T05:45:03.331Z,89.3
2023-02-17T05:48:03.468Z,89.3
2023-02-17T05:51:03.365Z,89.3
2023-02-17T05:54:03.359Z,89.3
2023-02-17T05:57:03.308Z,89.3
2023-02-17T06:00:03.459Z,89.3
2023-02-17T06:03:03.478Z,89.3
2023-02-17T06:06:03.670Z,89.7
2023-02-17T06:09:03.355Z,89.7
2023-02-17T06:12:03.364Z,89.7
2023-02-17T06:15:03.371Z,89.7
2023-02-17T06:18:03.354Z,89.7
2023-02-17T06:21:03.305Z,89.7
2023-02-17T06:24:03.284Z,89.7
2023-02-17T06:27:03.370Z,89.7
2023-02-17T06:30:03.559Z,89.7
2023-02-17T06:33:03.491Z,89.7
2023-02-17T06:36:03.487Z,89.7
2023-02-17T06:39:03.396Z,89.7
2023-02-17T06:42:03.335Z,89.7
2023-02-17T06:45:03.385Z,89.7
2023-02-17T06:48:03.390Z,89.7
2023-02-17T06:51:03.427Z,89.7
2023-02-17T06:54:03.399Z,89.7
2023-02-17T06:57:03.477Z,89.7
2023-02-17T07:00:03.437Z,89.7
2023-02-17T07:03:04.017Z,89.7
2023-02-17T07:06:03.445Z,89.7
2023-02-17T07:09:03.363Z,89.7
2023-02-17T07:12:03.370Z,88.6
2023-02-17T07:15:03.378Z,88.6
2023-02-17T07:18:03.709Z,88.6
2023-02-17T07:21:03.394Z,88.6
2023-02-17T07:24:03.309Z,88.2
2023-02-17T07:27:03.452Z,88.2
2023-02-17T07:30:03.577Z,88.2
2023-02-17T07:33:05.451Z,88.2
2023-02-17T07:36:03.532Z,88.2
2023-02-17T07:39:03.395Z,88.2
2023-02-17T07:42:03.467Z,87.4
2023-02-17T07:45:03.382Z,87.4
2023-02-17T07:48:03.426Z,87.4
2023-02-17T07:51:03.394Z,87.4
2023-02-17T07:54:03.482Z,87.2
2023-02-17T07:57:03.349Z,87.2
2023-02-17T08:00:03.649Z,87.2
2023-02-17T08:03:03.413Z,86.8
2023-02-17T08:06:03.437Z,86.8
2023-02-17T08:09:03.396Z,86.8
2023-02-17T08:12:03.340Z,86.8
2023-02-17T08:15:03.430Z,86.8
2023-02-17T08:18:03.398Z,86.8
2023-02-17T08:21:03.685Z,86.8
2023-02-17T08:24:03.355Z,86.8
2023-02-17T08:27:04.037Z,85.7
2023-02-17T08:30:03.694Z,85.7
2023-02-17T08:33:03.480Z,85.7
2023-02-17T08:36:03.452Z,85.7
2023-02-17T08:39:03.369Z,85.7
2023-02-17T08:42:03.482Z,85.7
2023-02-17T08:45:03.373Z,85.7
2023-02-17T08:48:03.452Z,85.7
2023-02-17T08:51:03.508Z,85.7
2023-02-17T08:54:03.457Z,85.7
2023-02-17T08:57:03.429Z,84.8
2023-02-17T09:00:05.516Z,84.8
2023-02-17T09:03:03.538Z,84.8
2023-02-17T09:06:03.498Z,84.8
2023-02-17T09:09:03.435Z,84.8
2023-02-17T09:12:03.389Z,84.8
2023-02-17T09:15:03.573Z,84.5
2023-02-17T09:18:03.405Z,84.5
2023-02-17T09:21:03.428Z,84.5
2023-02-17T09:24:03.616Z,84.5
2023-02-17T09:27:03.459Z,84.5
2023-02-17T09:30:03.797Z,84.5
2023-02-17T09:33:03.703Z,84.5
2023-02-17T09:36:03.470Z,84.5
2023-02-17T09:39:03.598Z,84.5
2023-02-17T09:42:03.513Z,84.5
2023-02-17T09:45:03.525Z,84.5
2023-02-17T09:48:03.518Z,84.5
2023-02-17T09:51:03.570Z,84.5
2023-02-17T09:54:03.510Z,84.5
2023-02-17T09:57:03.530Z,84.5
2023-02-17T10:00:03.818Z,84.5
2023-02-17T10:03:03.439Z,84.5
2023-02-17T10:06:03.341Z,84.5
2023-02-17T10:09:03.364Z,84.5
2023-02-17T10:12:03.497Z,84.5
2023-02-17T10:15:03.685Z,84.5
2023-02-17T10:18:03.446Z,84.5
2023-02-17T10:21:03.476Z,84.5
2023-02-17T10:24:03.394Z,84.5
2023-02-17T10:27:03.531Z,84.6
2023-02-17T10:30:03.659Z,84.6
2023-02-17T10:33:03.474Z,84.6
2023-02-17T10:36:03.518Z,84.5
2023-02-17T10:39:03.463Z,84.5
2023-02-17T10:42:03.364Z,84.5
2023-02-17T10:45:03.848Z,84.5
2023-02-17T10:48:03.422Z,84.5
2023-02-17T10:51:03.321Z,84.5
2023-02-17T10:54:03.464Z,84.5
2023-02-17T10:57:03.449Z,84.5
2023-02-17T11:00:03.473Z,84.5
2023-02-17T11:03:03.440Z,84.5
2023-02-17T11:06:03.391Z,84.5
2023-02-17T11:09:03.325Z,84.5
2023-02-17T11:12:03.433Z,84.5
2023-02-17T11:15:03.353Z,84.5
2023-02-17T11:18:03.604Z,84.3
2023-02-17T11:21:03.436Z,84.3
2023-02-17T11:24:03.389Z,84.3
2023-02-17T11:27:03.574Z,84.2
2023-02-17T11:30:03.614Z,84.2
2023-02-17T11:33:03.473Z,84.2
2023-02-17T11:36:03.450Z,84.2
2023-02-17T11:39:03.331Z,84.2
2023-02-17T11:42:03.553Z,84.2
2023-02-17T11:45:03.345Z,84.2
2023-02-17T11:48:03.497Z,83.3
2023-02-17T11:51:03.396Z,83.3
2023-02-17T11:54:03.540Z,83.3
2023-02-17T11:57:03.372Z,83.3
2023-02-17T12:00:03.863Z,83.3
2023-02-17T12:03:03.557Z,83.3
2023-02-17T12:06:03.455Z,83.3
2023-02-17T12:09:03.419Z,83.3
2023-02-17T12:12:03.368Z,81.9
2023-02-17T12:15:03.411Z,81.9
2023-02-17T12:18:03.743Z,81.9
2023-02-17T12:21:03.339Z,81.9
2023-02-17T12:24:03.351Z,81.1
2023-02-17T12:27:04.017Z,81.1
2023-02-17T12:30:03.557Z,81.1
2023-02-17T12:33:03.409Z,81.1
2023-02-17T12:36:03.370Z,81.1
2023-02-17T12:39:03.422Z,81.1
2023-02-17T12:42:03.403Z,81.1
2023-02-17T12:45:03.449Z,81.1
2023-02-17T12:48:03.381Z,81.1
2023-02-17T12:51:03.445Z,81.1
2023-02-17T12:54:04.053Z,78.6
2023-02-17T12:57:03.398Z,77.9
2023-02-17T13:00:03.456Z,78.3
2023-02-17T13:03:03.503Z,78.3
2023-02-17T13:06:03.471Z,78.3
2023-02-17T13:09:03.372Z,78.3
2023-02-17T13:12:03.381Z,78.3
2023-02-17T13:15:03.474Z,78.3
2023-02-17T13:18:03.547Z,78.3
2023-02-17T13:21:03.431Z,78.3
2023-02-17T13:24:03.397Z,76.8
2023-02-17T13:27:03.398Z,76.8
2023-02-17T13:30:03.533Z,76.8
2023-02-17T13:33:03.456Z,76.8
2023-02-17T13:36:03.417Z,76.8
2023-02-17T13:39:03.416Z,76.8
2023-02-17T13:42:03.456Z,76.8
2023-02-17T13:45:03.459Z,76.8
2023-02-17T13:48:03.626Z,76.8
2023-02-17T13:51:03.370Z,76.8
2023-02-17T13:54:03.428Z,77.1
2023-02-17T13:57:03.361Z,77.1
2023-02-17T14:00:03.544Z,77.1
2023-02-17T14:03:03.434Z,77.6
2023-02-17T14:06:03.461Z,77.6
2023-02-17T14:09:03.392Z,77.6
2023-02-17T14:12:03.465Z,78.7
2023-02-17T14:15:03.337Z,78.7
2023-02-17T14:18:03.409Z,78.7
2023-02-17T14:21:03.426Z,78.7
2023-02-17T14:24:03.460Z,78.7
2023-02-17T14:27:03.335Z,78.7
2023-02-17T14:30:07.631Z,78.7
2023-02-17T14:33:03.591Z,78.7
2023-02-17T14:36:03.493Z,78.7
2023-02-17T14:39:03.382Z,82
2023-02-17T14:42:03.372Z,82
2023-02-17T14:45:03.486Z,82
2023-02-17T14:48:03.393Z,82
2023-02-17T14:51:03.479Z,82
2023-02-17T14:54:03.418Z,82
2023-02-17T14:57:03.564Z,82
2023-02-17T15:00:03.464Z,82
2023-02-17T15:03:03.548Z,82.3
2023-02-17T15:06:03.319Z,82.3
2023-02-17T15:09:03.495Z,82.7
2023-02-17T15:12:03.448Z,82.7
2023-02-17T15:15:03.404Z,82.7
2023-02-17T15:18:03.624Z,82.7
2023-02-17T15:21:03.378Z,82.7
2023-02-17T15:24:03.471Z,82.7
2023-02-17T15:27:03.351Z,83.7
2023-02-17T15:30:03.842Z,83.7
2023-02-17T15:33:03.330Z,84.5
2023-02-17T15:36:03.419Z,84.5
2023-02-17T15:39:03.436Z,84.5
2023-02-17T15:42:03.442Z,84.5
2023-02-17T15:45:03.359Z,84.5
2023-02-17T15:48:03.405Z,84.5
2023-02-17T15:51:03.445Z,84.5
2023-02-17T15:54:03.389Z,84.5
2023-02-17T15:57:03.376Z,84.5
2023-02-17T16:00:03.382Z,84.5
2023-02-17T16:03:03.532Z,85.6
2023-02-17T16:06:03.376Z,85.6
2023-02-17T16:09:03.428Z,85.6
2023-02-17T16:12:03.374Z,85.6
2023-02-17T16:15:03.562Z,85.6
2023-02-17T16:18:03.381Z,85.6
2023-02-17T16:21:03.395Z,85.6
2023-02-17T16:24:03.395Z,85.6
2023-02-17T16:27:03.356Z,85.6
2023-02-17T16:30:03.884Z,85
2023-02-17T16:33:03.497Z,85
2023-02-17T16:36:03.323Z,85
2023-02-17T16:39:03.341Z,85
2023-02-17T16:42:03.354Z,85
2023-02-17T16:45:03.400Z,85
2023-02-17T16:48:03.423Z,85
2023-02-17T16:51:03.430Z,85
2023-02-17T16:54:03.335Z,85
2023-02-17T16:57:03.604Z,85
2023-02-17T17:00:03.422Z,85
2023-02-17T17:03:03.425Z,85
2023-02-17T17:06:03.328Z,85
2023-02-17T17:09:03.303Z,85
2023-02-17T17:12:03.359Z,85
2023-02-17T17:15:03.323Z,85
2023-02-17T17:18:03.371Z,85
2023-02-17T17:21:03.329Z,85
2023-02-17T17:24:03.441Z,86.3
2023-02-17T17:27:03.371Z,86.3
2023-02-17T17:30:03.858Z,86.3
2023-02-17T17:33:03.366Z,86.3
2023-02-17T17:36:03.289Z,86.3
2023-02-17T17:39:03.356Z,85.8
2023-02-17T17:42:03.320Z,85.8
2023-02-17T17:45:03.356Z,85.8
2023-02-17T17:48:03.452Z,85.2
2023-02-17T17:51:03.420Z,84.9
2023-02-17T17:54:03.385Z,84.8
2023-02-17T17:57:03.434Z,84.8
2023-02-17T18:00:03.424Z,84.5
2023-02-17T18:03:03.426Z,84.5
2023-02-17T18:06:03.371Z,84.5
2023-02-17T18:09:03.425Z,84.5
2023-02-17T18:12:03.392Z,84.3
2023-02-17T18:15:03.455Z,84.3
2023-02-17T18:18:03.420Z,84.3
2023-02-17T18:21:03.423Z,84.3
2023-02-17T18:24:03.396Z,85.2
2023-02-17T18:27:03.339Z,85.2
2023-02-17T18:30:03.632Z,85.2
2023-02-17T18:33:03.393Z,85.2
2023-02-17T18:36:03.385Z,86.1
2023-02-17T18:39:03.430Z,86.1
2023-02-17T18:42:03.304Z,86.1
2023-02-17T18:45:03.388Z,86.1
2023-02-17T18:48:03.407Z,85.4
2023-02-17T18:51:03.356Z,85.4
2023-02-17T18:54:03.364Z,85.4
2023-02-17T18:57:03.368Z,84.2
2023-02-17T19:00:03.324Z,84.2
2023-02-17T19:03:03.439Z,84.2
2023-02-17T19:06:03.305Z,84.2
2023-02-17T19:09:03.340Z,84.2
2023-02-17T19:12:03.331Z,84.2
2023-02-17T19:15:03.293Z,84
2023-02-17T19:18:03.480Z,84
2023-02-17T19:21:03.319Z,84
2023-02-17T19:24:03.324Z,84
2023-02-17T19:27:03.289Z,84
2023-02-17T19:30:03.500Z,84.1
2023-02-17T19:33:03.349Z,84.1
2023-02-17T19:36:03.356Z,84.1
2023-02-17T19:39:03.319Z,84.1
2023-02-17T19:42:03.341Z,84.1
2023-02-17T19:45:03.282Z,81.8
2023-02-17T19:48:03.343Z,81.8
2023-02-17T19:51:03.378Z,81.8
2023-02-17T19:54:03.318Z,81.8
2023-02-17T19:57:03.472Z,81.8
2023-02-17T20:00:03.331Z,81.8
2023-02-17T20:03:03.416Z,81.8
2023-02-17T20:06:03.469Z,81.8
2023-02-17T20:09:03.382Z,81.8
2023-02-17T20:12:03.314Z,80.9
2023-02-17T20:15:03.370Z,80.9
2023-02-17T20:18:03.391Z,80.9
2023-02-17T20:21:03.311Z,80.9
2023-02-17T20:24:03.417Z,80.5
2023-02-17T20:27:03.304Z,80.5
2023-02-17T20:30:04.474Z,80.5
2023-02-17T20:33:04.040Z,80.5
2023-02-17T20:36:04.099Z,80.5
2023-02-17T20:39:04.291Z,78.4
2023-02-17T20:42:04.029Z,78.4
2023-02-17T20:45:04.259Z,78.4
2023-02-17T20:48:03.382Z,78.4
2023-02-17T20:51:03.321Z,78.4
2023-02-17T20:54:03.364Z,78.4
2023-02-17T20:57:03.434Z,78.4
2023-02-17T21:00:03.343Z,78.2
2023-02-17T21:03:03.517Z,78.2
2023-02-17T21:06:03.309Z,78.2
2023-02-17T21:09:03.367Z,78.2
2023-02-17T21:12:03.292Z,78.2
2023-02-17T21:15:03.355Z,78.2
2023-02-17T21:18:03.398Z,78.2
2023-02-17T21:21:03.320Z,78.2
2023-02-17T21:24:03.351Z,75.5
2023-02-17T21:27:03.298Z,75.5
2023-02-17T21:30:03.544Z,75.5
2023-02-17T21:33:03.608Z,75.5
2023-02-17T21:36:03.330Z,75.5
2023-02-17T21:39:03.324Z,75.5
2023-02-17T21:42:03.316Z,75.5
2023-02-17T21:45:03.541Z,75.5
2023-02-17T21:48:03.291Z,75.5
2023-02-17T21:51:03.344Z,75.5
2023-02-17T21:54:03.350Z,75.5
2023-02-17T21:57:06.607Z,75.5
2023-02-17T22:00:03.355Z,75.1
2023-02-17T22:03:03.369Z,75.1
2023-02-17T22:06:03.327Z,75.1
2023-02-17T22:09:03.319Z,75.1
2023-02-17T22:12:03.315Z,74.2
2023-02-17T22:15:03.538Z,74.2
2023-02-17T22:18:03.806Z,74.2
2023-02-17T22:21:03.284Z,74.2
2023-02-17T22:24:03.411Z,74.2
2023-02-17T22:27:03.372Z,74.2
2023-02-17T22:30:03.482Z,72.8
2023-02-17T22:33:03.432Z,72.8
2023-02-17T22:36:03.313Z,72.8
2023-02-17T22:39:03.286Z,72.8
2023-02-17T22:42:03.341Z,72.8
2023-02-17T22:45:03.324Z,72.8
2023-02-17T22:48:03.362Z,72.8
2023-02-17T22:51:03.388Z,72.8
2023-02-17T22:54:03.338Z,72.8
2023-02-17T22:57:03.388Z,72.8
2023-02-17T23:00:03.857Z,72.8
2023-02-17T23:03:03.442Z,72.8
2023-02-17T23:06:03.417Z,72.8
2023-02-17T23:09:03.386Z,72.8
2023-02-17T23:12:03.264Z,71.5
2023-02-17T23:15:03.359Z,71.5
2023-02-17T23:18:03.326Z,71.5
2023-02-17T23:21:03.323Z,71.5
2023-02-17T23:24:03.336Z,71.5
2023-02-17T23:27:03.326Z,71.5
2023-02-17T23:30:03.527Z,71.5
2023-02-17T23:33:03.399Z,71.5
2023-02-17T23:36:03.353Z,71.5
2023-02-17T23:39:03.357Z,71.5
2023-02-17T23:42:03.337Z,71.5
2023-02-17T23:45:03.305Z,71.5
2023-02-17T23:48:03.338Z,71.5
2023-02-17T23:51:03.352Z,71.5
2023-02-17T23:54:03.286Z,71.5
2023-02-17T23:57:03.356Z,71.5
